sensor_id;sensor_type;location;lat;lon;timestamp;P1;durP1;ratioP1;P2;durP2;ratioP2
6374;SDS011;35400;45.472;-122.822;2022-09-17T00:00:47;0.32;;;0.30;;
6374;SDS011;35400;45.472;-122.822;2022-09-17T00:03:15;0.75;;;0.35;;
6374;SDS011;35400;45.472;-122.822;2022-09-17T00:05:42;2.83;;;0.45;;
6374;SDS011;35400;45.472;-122.822;2022-09-17T00:08:10;1.17;;;0.50;;
6374;SDS011;35400;45.472;-122.822;2022-09-17T00:10:40;3.08;;;0.63;;
6374;SDS011;35400;45.472;-122.822;2022-09-17T00:13:09;2.55;;;0.50;;
6374;SDS011;35400;45.472;-122.822;2022-09-17T00:15:40;0.97;;;0.30;;
6374;SDS011;35400;45.472;-122.822;2022-09-17T00:18:07;1.90;;;0.73;;
6374;SDS011;35400;45.472;-122.822;2022-09-17T00:20:42;0.95;;;0.60;;
6374;SDS011;35400;45.472;-122.822;2022-09-17T00:23:11;2.90;;;0.47;;
6374;SDS011;35400;45.472;-122.822;2022-09-17T00:25:40;2.33;;;0.60;;
6374;SDS011;35400;45.472;-122.822;2022-09-17T00:28:08;1.95;;;0.50;;
6374;SDS011;35400;45.472;-122.822;2022-09-17T00:30:39;1.02;;;0.50;;
6374;SDS011;35400;45.472;-122.822;2022-09-17T00:33:08;0.40;;;0.40;;
6374;SDS011;35400;45.472;-122.822;2022-09-17T00:35:38;1.58;;;0.40;;
6374;SDS011;35400;45.472;-122.822;2022-09-17T00:38:04;0.60;;;0.40;;
6374;SDS011;35400;45.472;-122.822;2022-09-17T00:40:31;0.40;;;0.40;;
6374;SDS011;35400;45.472;-122.822;2022-09-17T00:42:58;2.53;;;0.67;;
6374;SDS011;35400;45.472;-122.822;2022-09-17T00:45:25;2.47;;;0.50;;
6374;SDS011;35400;45.472;-122.822;2022-09-17T00:47:58;1.70;;;0.60;;
6374;SDS011;35400;45.472;-122.822;2022-09-17T00:50:27;0.67;;;0.43;;
6374;SDS011;35400;45.472;-122.822;2022-09-17T00:53:05;2.33;;;0.40;;
6374;SDS011;35400;45.472;-122.822;2022-09-17T00:55:37;0.83;;;0.57;;
6374;SDS011;35400;45.472;-122.822;2022-09-17T00:58:07;2.43;;;0.23;;
6374;SDS011;35400;45.472;-122.822;2022-09-17T01:00:36;1.13;;;0.50;;
6374;SDS011;35400;45.472;-122.822;2022-09-17T01:03:03;1.03;;;0.50;;
6374;SDS011;35400;45.472;-122.822;2022-09-17T01:05:35;0.40;;;0.40;;
6374;SDS011;35400;45.472;-122.822;2022-09-17T01:16:11;1.30;;;0.63;;
6374;SDS011;35400;45.472;-122.822;2022-09-17T01:19:41;2.30;;;0.50;;
6374;SDS011;35400;45.472;-122.822;2022-09-17T01:22:02;1.17;;;0.40;;
6374;SDS011;35400;45.472;-122.822;2022-09-17T01:25:16;0.43;;;0.40;;
6374;SDS011;35400;45.472;-122.822;2022-09-17T01:27:50;0.40;;;0.40;;
6374;SDS011;35400;45.472;-122.822;2022-09-17T01:30:41;0.77;;;0.30;;
6374;SDS011;35400;45.472;-122.822;2022-09-17T01:33:44;0.40;;;0.37;;
6374;SDS011;35400;45.472;-122.822;2022-09-17T01:36:19;1.27;;;0.47;;
6374;SDS011;35400;45.472;-122.822;2022-09-17T01:38:53;0.77;;;0.50;;
6374;SDS011;35400;45.472;-122.822;2022-09-17T01:41:30;0.40;;;0.40;;
6374;SDS011;35400;45.472;-122.822;2022-09-17T01:44:22;0.50;;;0.50;;
6374;SDS011;35400;45.472;-122.822;2022-09-17T01:47:14;0.60;;;0.40;;
6374;SDS011;35400;45.472;-122.822;2022-09-17T01:50:16;1.07;;;0.40;;
6374;SDS011;35400;45.472;-122.822;2022-09-17T01:52:50;0.40;;;0.37;;
6374;SDS011;35400;45.472;-122.822;2022-09-17T01:55:20;0.93;;;0.50;;
6374;SDS011;35400;45.472;-122.822;2022-09-17T01:57:54;0.40;;;0.40;;
6374;SDS011;35400;45.472;-122.822;2022-09-17T02:00:25;1.47;;;0.53;;
6374;SDS011;35400;45.472;-122.822;2022-09-17T02:05:38;0.47;;;0.40;;
6374;SDS011;35400;45.472;-122.822;2022-09-17T02:08:23;0.30;;;0.30;;
6374;SDS011;35400;45.472;-122.822;2022-09-17T02:10:57;1.17;;;0.40;;
6374;SDS011;35400;45.472;-122.822;2022-09-17T02:16:29;0.47;;;0.40;;
6374;SDS011;35400;45.472;-122.822;2022-09-17T02:19:11;1.50;;;0.40;;
6374;SDS011;35400;45.472;-122.822;2022-09-17T02:22:04;0.47;;;0.37;;
6374;SDS011;35400;45.472;-122.822;2022-09-17T02:27:03;0.20;;;0.20;;
6374;SDS011;35400;45.472;-122.822;2022-09-17T02:29:38;0.37;;;0.37;;
6374;SDS011;35400;45.472;-122.822;2022-09-17T02:32:07;1.17;;;0.50;;
6374;SDS011;35400;45.472;-122.822;2022-09-17T02:34:34;0.20;;;0.20;;
6374;SDS011;35400;45.472;-122.822;2022-09-17T02:37:01;0.40;;;0.40;;
6374;SDS011;35400;45.472;-122.822;2022-09-17T02:39:29;0.90;;;0.40;;
6374;SDS011;35400;45.472;-122.822;2022-09-17T02:42:10;1.03;;;0.40;;
6374;SDS011;35400;45.472;-122.822;2022-09-17T02:47:33;0.47;;;0.33;;
6374;SDS011;35400;45.472;-122.822;2022-09-17T02:50:40;0.87;;;0.40;;
6374;SDS011;35400;45.472;-122.822;2022-09-17T02:58:24;0.40;;;0.40;;
6374;SDS011;35400;45.472;-122.822;2022-09-17T03:01:10;0.80;;;0.50;;
6374;SDS011;35400;45.472;-122.822;2022-09-17T03:03:43;0.40;;;0.30;;
6374;SDS011;35400;45.472;-122.822;2022-09-17T03:06:14;0.27;;;0.27;;
6374;SDS011;35400;45.472;-122.822;2022-09-17T03:08:42;0.70;;;0.40;;
6374;SDS011;35400;45.472;-122.822;2022-09-17T03:11:12;1.20;;;0.40;;
6374;SDS011;35400;45.472;-122.822;2022-09-17T03:13:39;0.40;;;0.40;;
6374;SDS011;35400;45.472;-122.822;2022-09-17T03:16:06;0.60;;;0.50;;
6374;SDS011;35400;45.472;-122.822;2022-09-17T03:18:33;0.33;;;0.30;;
6374;SDS011;35400;45.472;-122.822;2022-09-17T03:21:00;0.23;;;0.23;;
6374;SDS011;35400;45.472;-122.822;2022-09-17T03:23:27;0.93;;;0.40;;
6374;SDS011;35400;45.472;-122.822;2022-09-17T03:25:54;0.40;;;0.40;;
6374;SDS011;35400;45.472;-122.822;2022-09-17T03:28:21;0.57;;;0.50;;
6374;SDS011;35400;45.472;-122.822;2022-09-17T03:30:50;0.40;;;0.40;;
6374;SDS011;35400;45.472;-122.822;2022-09-17T03:33:17;0.40;;;0.40;;
6374;SDS011;35400;45.472;-122.822;2022-09-17T03:35:44;0.73;;;0.50;;
6374;SDS011;35400;45.472;-122.822;2022-09-17T03:38:11;0.40;;;0.40;;
6374;SDS011;35400;45.472;-122.822;2022-09-17T03:40:38;3.63;;;0.50;;
6374;SDS011;35400;45.472;-122.822;2022-09-17T03:43:05;0.50;;;0.50;;
6374;SDS011;35400;45.472;-122.822;2022-09-17T03:45:32;1.37;;;0.40;;
6374;SDS011;35400;45.472;-122.822;2022-09-17T03:48:00;0.63;;;0.50;;
6374;SDS011;35400;45.472;-122.822;2022-09-17T03:50:26;0.80;;;0.50;;
6374;SDS011;35400;45.472;-122.822;2022-09-17T03:52:53;0.77;;;0.40;;
6374;SDS011;35400;45.472;-122.822;2022-09-17T03:55:20;0.30;;;0.30;;
6374;SDS011;35400;45.472;-122.822;2022-09-17T03:57:47;0.50;;;0.50;;
6374;SDS011;35400;45.472;-122.822;2022-09-17T04:00:14;0.50;;;0.50;;
6374;SDS011;35400;45.472;-122.822;2022-09-17T04:02:42;0.60;;;0.50;;
6374;SDS011;35400;45.472;-122.822;2022-09-17T04:05:08;0.57;;;0.57;;
6374;SDS011;35400;45.472;-122.822;2022-09-17T04:07:35;0.70;;;0.50;;
6374;SDS011;35400;45.472;-122.822;2022-09-17T04:10:04;1.03;;;0.50;;
6374;SDS011;35400;45.472;-122.822;2022-09-17T04:12:31;1.30;;;0.63;;
6374;SDS011;35400;45.472;-122.822;2022-09-17T04:14:58;0.70;;;0.60;;
6374;SDS011;35400;45.472;-122.822;2022-09-17T04:17:25;0.57;;;0.57;;
6374;SDS011;35400;45.472;-122.822;2022-09-17T04:19:52;0.87;;;0.60;;
6374;SDS011;35400;45.472;-122.822;2022-09-17T04:22:19;0.50;;;0.50;;
6374;SDS011;35400;45.472;-122.822;2022-09-17T04:24:46;0.70;;;0.70;;
6374;SDS011;35400;45.472;-122.822;2022-09-17T04:27:13;0.97;;;0.67;;
6374;SDS011;35400;45.472;-122.822;2022-09-17T04:29:40;0.60;;;0.60;;
6374;SDS011;35400;45.472;-122.822;2022-09-17T04:32:06;0.50;;;0.50;;
6374;SDS011;35400;45.472;-122.822;2022-09-17T04:34:33;0.60;;;0.60;;
6374;SDS011;35400;45.472;-122.822;2022-09-17T04:37:00;1.03;;;0.57;;
6374;SDS011;35400;45.472;-122.822;2022-09-17T04:39:27;0.60;;;0.60;;
6374;SDS011;35400;45.472;-122.822;2022-09-17T04:41:54;0.73;;;0.50;;
6374;SDS011;35400;45.472;-122.822;2022-09-17T04:44:20;1.60;;;0.70;;
6374;SDS011;35400;45.472;-122.822;2022-09-17T04:46:47;0.63;;;0.60;;
6374;SDS011;35400;45.472;-122.822;2022-09-17T04:49:14;1.50;;;0.93;;
6374;SDS011;35400;45.472;-122.822;2022-09-17T04:51:41;2.00;;;1.00;;
6374;SDS011;35400;45.472;-122.822;2022-09-17T04:54:07;2.27;;;1.10;;
6374;SDS011;35400;45.472;-122.822;2022-09-17T04:56:34;1.40;;;0.70;;
6374;SDS011;35400;45.472;-122.822;2022-09-17T04:59:01;0.70;;;0.70;;
6374;SDS011;35400;45.472;-122.822;2022-09-17T05:01:28;1.37;;;0.60;;
6374;SDS011;35400;45.472;-122.822;2022-09-17T05:03:54;0.50;;;0.50;;
6374;SDS011;35400;45.472;-122.822;2022-09-17T05:06:21;0.40;;;0.40;;
6374;SDS011;35400;45.472;-122.822;2022-09-17T05:08:49;1.57;;;0.60;;
6374;SDS011;35400;45.472;-122.822;2022-09-17T05:11:16;1.03;;;0.40;;
6374;SDS011;35400;45.472;-122.822;2022-09-17T05:13:42;0.40;;;0.40;;
6374;SDS011;35400;45.472;-122.822;2022-09-17T05:16:09;0.57;;;0.50;;
6374;SDS011;35400;45.472;-122.822;2022-09-17T05:18:36;1.13;;;0.53;;
6374;SDS011;35400;45.472;-122.822;2022-09-17T05:21:03;0.70;;;0.53;;
6374;SDS011;35400;45.472;-122.822;2022-09-17T05:23:30;0.50;;;0.50;;
6374;SDS011;35400;45.472;-122.822;2022-09-17T05:25:59;1.23;;;0.60;;
6374;SDS011;35400;45.472;-122.822;2022-09-17T05:28:26;0.40;;;0.40;;
6374;SDS011;35400;45.472;-122.822;2022-09-17T05:30:53;1.83;;;0.60;;
6374;SDS011;35400;45.472;-122.822;2022-09-17T05:33:23;1.30;;;0.80;;
6374;SDS011;35400;45.472;-122.822;2022-09-17T05:35:50;0.40;;;0.40;;
6374;SDS011;35400;45.472;-122.822;2022-09-17T05:38:17;0.50;;;0.50;;
6374;SDS011;35400;45.472;-122.822;2022-09-17T05:40:44;1.33;;;0.50;;
6374;SDS011;35400;45.472;-122.822;2022-09-17T05:43:11;0.90;;;0.53;;
6374;SDS011;35400;45.472;-122.822;2022-09-17T05:45:37;0.60;;;0.60;;
6374;SDS011;35400;45.472;-122.822;2022-09-17T05:48:05;1.37;;;0.90;;
6374;SDS011;35400;45.472;-122.822;2022-09-17T05:50:32;2.63;;;1.13;;
6374;SDS011;35400;45.472;-122.822;2022-09-17T05:53:05;1.00;;;0.90;;
6374;SDS011;35400;45.472;-122.822;2022-09-17T05:55:35;2.30;;;0.60;;
6374;SDS011;35400;45.472;-122.822;2022-09-17T05:58:11;1.57;;;0.60;;
6374;SDS011;35400;45.472;-122.822;2022-09-17T06:00:40;1.47;;;0.60;;
6374;SDS011;35400;45.472;-122.822;2022-09-17T06:03:11;0.40;;;0.40;;
6374;SDS011;35400;45.472;-122.822;2022-09-17T06:05:39;1.60;;;0.47;;
6374;SDS011;35400;45.472;-122.822;2022-09-17T06:08:06;0.60;;;0.60;;
6374;SDS011;35400;45.472;-122.822;2022-09-17T06:10:37;1.27;;;0.67;;
6374;SDS011;35400;45.472;-122.822;2022-09-17T06:13:04;2.57;;;1.70;;
6374;SDS011;35400;45.472;-122.822;2022-09-17T06:15:31;2.77;;;2.47;;
6374;SDS011;35400;45.472;-122.822;2022-09-17T06:17:58;1.30;;;1.10;;
6374;SDS011;35400;45.472;-122.822;2022-09-17T06:20:25;1.27;;;1.00;;
6374;SDS011;35400;45.472;-122.822;2022-09-17T06:22:58;1.07;;;1.03;;
6374;SDS011;35400;45.472;-122.822;2022-09-17T06:25:25;2.07;;;0.97;;
6374;SDS011;35400;45.472;-122.822;2022-09-17T06:27:51;1.03;;;0.50;;
6374;SDS011;35400;45.472;-122.822;2022-09-17T06:30:18;0.50;;;0.50;;
6374;SDS011;35400;45.472;-122.822;2022-09-17T06:32:45;3.43;;;0.73;;
6374;SDS011;35400;45.472;-122.822;2022-09-17T06:35:12;1.17;;;0.50;;
6374;SDS011;35400;45.472;-122.822;2022-09-17T06:37:39;0.90;;;0.63;;
6374;SDS011;35400;45.472;-122.822;2022-09-17T06:40:07;1.33;;;0.60;;
6374;SDS011;35400;45.472;-122.822;2022-09-17T06:42:34;0.50;;;0.50;;
6374;SDS011;35400;45.472;-122.822;2022-09-17T06:45:01;2.30;;;0.70;;
6374;SDS011;35400;45.472;-122.822;2022-09-17T06:47:28;1.43;;;0.60;;
6374;SDS011;35400;45.472;-122.822;2022-09-17T06:49:55;0.97;;;0.60;;
6374;SDS011;35400;45.472;-122.822;2022-09-17T06:52:24;0.87;;;0.70;;
6374;SDS011;35400;45.472;-122.822;2022-09-17T06:54:51;0.70;;;0.50;;
6374;SDS011;35400;45.472;-122.822;2022-09-17T06:57:18;1.17;;;0.60;;
6374;SDS011;35400;45.472;-122.822;2022-09-17T06:59:45;1.63;;;0.80;;
6374;SDS011;35400;45.472;-122.822;2022-09-17T07:02:11;1.53;;;0.70;;
6374;SDS011;35400;45.472;-122.822;2022-09-17T07:04:40;0.73;;;0.50;;
6374;SDS011;35400;45.472;-122.822;2022-09-17T07:07:07;1.50;;;0.67;;
6374;SDS011;35400;45.472;-122.822;2022-09-17T07:09:34;0.70;;;0.70;;
6374;SDS011;35400;45.472;-122.822;2022-09-17T07:12:01;0.97;;;0.87;;
6374;SDS011;35400;45.472;-122.822;2022-09-17T07:14:31;2.50;;;0.60;;
6374;SDS011;35400;45.472;-122.822;2022-09-17T07:16:58;0.70;;;0.70;;
6374;SDS011;35400;45.472;-122.822;2022-09-17T07:19:25;1.10;;;0.80;;
6374;SDS011;35400;45.472;-122.822;2022-09-17T07:21:51;1.73;;;1.00;;
6374;SDS011;35400;45.472;-122.822;2022-09-17T07:24:18;0.87;;;0.87;;
6374;SDS011;35400;45.472;-122.822;2022-09-17T07:26:45;2.53;;;0.90;;
6374;SDS011;35400;45.472;-122.822;2022-09-17T07:29:12;1.60;;;0.97;;
6374;SDS011;35400;45.472;-122.822;2022-09-17T07:31:39;1.03;;;1.00;;
6374;SDS011;35400;45.472;-122.822;2022-09-17T07:34:05;1.27;;;0.80;;
6374;SDS011;35400;45.472;-122.822;2022-09-17T07:36:32;3.17;;;0.80;;
6374;SDS011;35400;45.472;-122.822;2022-09-17T07:38:59;1.23;;;0.90;;
6374;SDS011;35400;45.472;-122.822;2022-09-17T07:41:26;1.30;;;0.70;;
6374;SDS011;35400;45.472;-122.822;2022-09-17T07:43:53;0.80;;;0.80;;
6374;SDS011;35400;45.472;-122.822;2022-09-17T07:46:20;1.30;;;0.80;;
6374;SDS011;35400;45.472;-122.822;2022-09-17T07:48:47;1.00;;;0.73;;
6374;SDS011;35400;45.472;-122.822;2022-09-17T07:51:15;1.37;;;1.00;;
6374;SDS011;35400;45.472;-122.822;2022-09-17T07:53:43;1.73;;;0.90;;
6374;SDS011;35400;45.472;-122.822;2022-09-17T07:56:11;2.00;;;0.90;;
6374;SDS011;35400;45.472;-122.822;2022-09-17T07:58:38;1.23;;;0.83;;
6374;SDS011;35400;45.472;-122.822;2022-09-17T08:01:05;1.40;;;0.80;;
6374;SDS011;35400;45.472;-122.822;2022-09-17T08:03:34;0.80;;;0.70;;
6374;SDS011;35400;45.472;-122.822;2022-09-17T08:06:05;1.13;;;0.90;;
6374;SDS011;35400;45.472;-122.822;2022-09-17T08:08:34;1.20;;;0.80;;
6374;SDS011;35400;45.472;-122.822;2022-09-17T08:11:02;1.30;;;1.00;;
6374;SDS011;35400;45.472;-122.822;2022-09-17T08:13:30;1.20;;;0.70;;
6374;SDS011;35400;45.472;-122.822;2022-09-17T08:16:01;1.53;;;0.80;;
6374;SDS011;35400;45.472;-122.822;2022-09-17T08:18:40;1.90;;;0.80;;
6374;SDS011;35400;45.472;-122.822;2022-09-17T08:21:09;2.20;;;0.80;;
6374;SDS011;35400;45.472;-122.822;2022-09-17T08:23:38;1.67;;;0.90;;
6374;SDS011;35400;45.472;-122.822;2022-09-17T08:26:06;0.80;;;0.80;;
6374;SDS011;35400;45.472;-122.822;2022-09-17T08:28:37;1.13;;;0.63;;
6374;SDS011;35400;45.472;-122.822;2022-09-17T08:31:05;1.40;;;0.70;;
6374;SDS011;35400;45.472;-122.822;2022-09-17T08:33:37;1.60;;;0.80;;
6374;SDS011;35400;45.472;-122.822;2022-09-17T08:36:05;1.10;;;0.80;;
6374;SDS011;35400;45.472;-122.822;2022-09-17T08:38:34;0.90;;;0.80;;
6374;SDS011;35400;45.472;-122.822;2022-09-17T08:46:48;1.03;;;0.70;;
6374;SDS011;35400;45.472;-122.822;2022-09-17T08:50:12;2.63;;;0.77;;
6374;SDS011;35400;45.472;-122.822;2022-09-17T09:00:18;1.17;;;0.70;;
6374;SDS011;35400;45.472;-122.822;2022-09-17T09:05:37;1.13;;;0.73;;
6374;SDS011;35400;45.472;-122.822;2022-09-17T09:08:13;0.80;;;0.80;;
6374;SDS011;35400;45.472;-122.822;2022-09-17T09:13:16;2.67;;;0.80;;
6374;SDS011;35400;45.472;-122.822;2022-09-17T09:15:46;2.27;;;0.80;;
6374;SDS011;35400;45.472;-122.822;2022-09-17T09:18:25;2.30;;;0.90;;
6374;SDS011;35400;45.472;-122.822;2022-09-17T09:21:03;2.70;;;1.10;;
6374;SDS011;35400;45.472;-122.822;2022-09-17T09:26:15;1.33;;;1.00;;
6374;SDS011;35400;45.472;-122.822;2022-09-17T09:34:13;1.30;;;0.83;;
6374;SDS011;35400;45.472;-122.822;2022-09-17T09:36:40;1.20;;;1.00;;
6374;SDS011;35400;45.472;-122.822;2022-09-17T09:39:21;0.83;;;0.70;;
6374;SDS011;35400;45.472;-122.822;2022-09-17T09:42:03;0.80;;;0.80;;
6374;SDS011;35400;45.472;-122.822;2022-09-17T09:44:48;1.63;;;0.77;;
6374;SDS011;35400;45.472;-122.822;2022-09-17T09:47:30;1.30;;;0.97;;
6374;SDS011;35400;45.472;-122.822;2022-09-17T09:50:23;0.80;;;0.80;;
6374;SDS011;35400;45.472;-122.822;2022-09-17T09:58:52;1.17;;;0.90;;
6374;SDS011;35400;45.472;-122.822;2022-09-17T10:01:20;1.00;;;1.00;;
6374;SDS011;35400;45.472;-122.822;2022-09-17T10:03:48;1.37;;;1.27;;
6374;SDS011;35400;45.472;-122.822;2022-09-17T10:06:17;2.30;;;1.20;;
6374;SDS011;35400;45.472;-122.822;2022-09-17T10:11:23;1.87;;;1.40;;
6374;SDS011;35400;45.472;-122.822;2022-09-17T10:13:52;3.13;;;1.00;;
6374;SDS011;35400;45.472;-122.822;2022-09-17T10:16:38;1.87;;;1.10;;
6374;SDS011;35400;45.472;-122.822;2022-09-17T10:21:32;1.50;;;1.33;;
6374;SDS011;35400;45.472;-122.822;2022-09-17T10:24:18;1.57;;;1.20;;
6374;SDS011;35400;45.472;-122.822;2022-09-17T10:27:04;1.83;;;1.20;;
6374;SDS011;35400;45.472;-122.822;2022-09-17T10:29:37;2.60;;;1.30;;
6374;SDS011;35400;45.472;-122.822;2022-09-17T10:32:21;1.87;;;1.03;;
6374;SDS011;35400;45.472;-122.822;2022-09-17T10:35:05;4.50;;;1.40;;
6374;SDS011;35400;45.472;-122.822;2022-09-17T10:37:42;2.43;;;1.17;;
6374;SDS011;35400;45.472;-122.822;2022-09-17T10:42:47;1.03;;;0.97;;
6374;SDS011;35400;45.472;-122.822;2022-09-17T10:45:25;4.97;;;1.17;;
6374;SDS011;35400;45.472;-122.822;2022-09-17T10:47:54;3.47;;;0.90;;
6374;SDS011;35400;45.472;-122.822;2022-09-17T10:50:32;1.10;;;0.80;;
6374;SDS011;35400;45.472;-122.822;2022-09-17T10:53:05;2.00;;;0.93;;
6374;SDS011;35400;45.472;-122.822;2022-09-17T10:55:49;1.70;;;1.00;;
6374;SDS011;35400;45.472;-122.822;2022-09-17T11:01:46;1.27;;;0.87;;
6374;SDS011;35400;45.472;-122.822;2022-09-17T11:07:32;1.23;;;0.90;;
6374;SDS011;35400;45.472;-122.822;2022-09-17T11:10:17;2.03;;;1.30;;
6374;SDS011;35400;45.472;-122.822;2022-09-17T11:15:42;3.77;;;1.00;;
6374;SDS011;35400;45.472;-122.822;2022-09-17T11:18:38;2.30;;;1.00;;
6374;SDS011;35400;45.472;-122.822;2022-09-17T11:37:24;4.10;;;1.00;;
6374;SDS011;35400;45.472;-122.822;2022-09-17T11:39:59;1.30;;;1.10;;
6374;SDS011;35400;45.472;-122.822;2022-09-17T11:45:17;2.40;;;1.20;;
6374;SDS011;35400;45.472;-122.822;2022-09-17T11:47:53;1.93;;;1.20;;
6374;SDS011;35400;45.472;-122.822;2022-09-17T11:50:35;3.17;;;1.30;;
6374;SDS011;35400;45.472;-122.822;2022-09-17T11:53:27;2.00;;;1.20;;
6374;SDS011;35400;45.472;-122.822;2022-09-17T11:56:43;1.80;;;1.17;;
6374;SDS011;35400;45.472;-122.822;2022-09-17T11:59:33;1.13;;;1.03;;
6374;SDS011;35400;45.472;-122.822;2022-09-17T12:02:50;2.37;;;1.27;;
6374;SDS011;35400;45.472;-122.822;2022-09-17T12:05:02;2.30;;;1.20;;
6374;SDS011;35400;45.472;-122.822;2022-09-17T12:07:47;1.27;;;1.07;;
6374;SDS011;35400;45.472;-122.822;2022-09-17T12:13:17;1.97;;;1.23;;
6374;SDS011;35400;45.472;-122.822;2022-09-17T12:16:29;1.30;;;1.20;;
6374;SDS011;35400;45.472;-122.822;2022-09-17T12:21:51;2.00;;;1.20;;
6374;SDS011;35400;45.472;-122.822;2022-09-17T12:35:06;1.50;;;1.30;;
6374;SDS011;35400;45.472;-122.822;2022-09-17T12:44:05;1.93;;;1.17;;
6374;SDS011;35400;45.472;-122.822;2022-09-17T12:58:33;2.80;;;1.53;;
6374;SDS011;35400;45.472;-122.822;2022-09-17T13:01:17;1.87;;;1.17;;
6374;SDS011;35400;45.472;-122.822;2022-09-17T13:15:41;1.87;;;1.10;;
6374;SDS011;35400;45.472;-122.822;2022-09-17T13:18:42;3.30;;;1.33;;
6374;SDS011;35400;45.472;-122.822;2022-09-17T13:21:19;1.43;;;1.17;;
6374;SDS011;35400;45.472;-122.822;2022-09-17T13:23:55;3.17;;;1.30;;
6374;SDS011;35400;45.472;-122.822;2022-09-17T13:26:32;3.20;;;1.50;;
6374;SDS011;35400;45.472;-122.822;2022-09-17T13:29:04;1.70;;;1.20;;
6374;SDS011;35400;45.472;-122.822;2022-09-17T13:36:44;1.80;;;1.30;;
6374;SDS011;35400;45.472;-122.822;2022-09-17T13:39:33;1.53;;;1.27;;
6374;SDS011;35400;45.472;-122.822;2022-09-17T13:42:17;1.40;;;1.30;;
6374;SDS011;35400;45.472;-122.822;2022-09-17T13:45:10;2.07;;;1.30;;
6374;SDS011;35400;45.472;-122.822;2022-09-17T13:50:38;1.93;;;1.10;;
6374;SDS011;35400;45.472;-122.822;2022-09-17T13:55:40;2.67;;;1.27;;
6374;SDS011;35400;45.472;-122.822;2022-09-17T13:58:31;1.20;;;1.10;;
6374;SDS011;35400;45.472;-122.822;2022-09-17T14:01:10;3.17;;;1.30;;
6374;SDS011;35400;45.472;-122.822;2022-09-17T14:11:51;4.50;;;1.50;;
6374;SDS011;35400;45.472;-122.822;2022-09-17T14:16:33;3.73;;;1.47;;
6374;SDS011;35400;45.472;-122.822;2022-09-17T14:21:42;1.67;;;1.20;;
6374;SDS011;35400;45.472;-122.822;2022-09-17T14:24:23;3.60;;;1.20;;
6374;SDS011;35400;45.472;-122.822;2022-09-17T14:29:26;1.40;;;1.30;;
6374;SDS011;35400;45.472;-122.822;2022-09-17T14:32:23;1.40;;;1.30;;
6374;SDS011;35400;45.472;-122.822;2022-09-17T14:34:52;2.20;;;1.27;;
6374;SDS011;35400;45.472;-122.822;2022-09-17T14:37:19;1.90;;;1.33;;
6374;SDS011;35400;45.472;-122.822;2022-09-17T14:39:47;6.63;;;1.57;;
6374;SDS011;35400;45.472;-122.822;2022-09-17T14:42:18;3.63;;;1.43;;
6374;SDS011;35400;45.472;-122.822;2022-09-17T14:44:58;1.70;;;1.40;;
6374;SDS011;35400;45.472;-122.822;2022-09-17T14:47:27;1.47;;;1.33;;
6374;SDS011;35400;45.472;-122.822;2022-09-17T14:49:54;3.57;;;1.40;;
6374;SDS011;35400;45.472;-122.822;2022-09-17T14:52:48;1.83;;;1.30;;
6374;SDS011;35400;45.472;-122.822;2022-09-17T14:57:59;2.07;;;1.30;;
6374;SDS011;35400;45.472;-122.822;2022-09-17T15:00:36;1.93;;;1.37;;
6374;SDS011;35400;45.472;-122.822;2022-09-17T15:03:03;1.93;;;1.30;;
6374;SDS011;35400;45.472;-122.822;2022-09-17T15:05:32;3.50;;;2.03;;
6374;SDS011;35400;45.472;-122.822;2022-09-17T15:08:07;3.13;;;1.70;;
6374;SDS011;35400;45.472;-122.822;2022-09-17T15:10:55;1.77;;;1.40;;
6374;SDS011;35400;45.472;-122.822;2022-09-17T15:16:12;2.67;;;1.70;;
6374;SDS011;35400;45.472;-122.822;2022-09-17T15:18:48;2.27;;;1.47;;
6374;SDS011;35400;45.472;-122.822;2022-09-17T15:21:38;3.37;;;1.90;;
6374;SDS011;35400;45.472;-122.822;2022-09-17T15:24:19;2.67;;;1.57;;
6374;SDS011;35400;45.472;-122.822;2022-09-17T15:29:46;2.73;;;1.30;;
6374;SDS011;35400;45.472;-122.822;2022-09-17T15:32:17;2.43;;;1.50;;
6374;SDS011;35400;45.472;-122.822;2022-09-17T15:34:44;2.03;;;1.30;;
6374;SDS011;35400;45.472;-122.822;2022-09-17T15:39:40;2.13;;;1.40;;
6374;SDS011;35400;45.472;-122.822;2022-09-17T15:42:21;3.60;;;1.57;;
6374;SDS011;35400;45.472;-122.822;2022-09-17T15:47:55;1.40;;;1.30;;
6374;SDS011;35400;45.472;-122.822;2022-09-17T15:50:26;3.70;;;1.63;;
6374;SDS011;35400;45.472;-122.822;2022-09-17T15:53:10;2.90;;;1.27;;
6374;SDS011;35400;45.472;-122.822;2022-09-17T15:55:39;2.57;;;1.67;;
6374;SDS011;35400;45.472;-122.822;2022-09-17T15:58:34;1.50;;;1.40;;
6374;SDS011;35400;45.472;-122.822;2022-09-17T16:06:46;3.10;;;1.70;;
6374;SDS011;35400;45.472;-122.822;2022-09-17T16:12:16;1.43;;;1.27;;
6374;SDS011;35400;45.472;-122.822;2022-09-17T16:14:46;2.70;;;1.30;;
6374;SDS011;35400;45.472;-122.822;2022-09-17T16:17:18;2.90;;;1.43;;
6374;SDS011;35400;45.472;-122.822;2022-09-17T16:19:47;5.13;;;1.47;;
6374;SDS011;35400;45.472;-122.822;2022-09-17T16:22:14;2.57;;;1.47;;
6374;SDS011;35400;45.472;-122.822;2022-09-17T16:24:40;2.17;;;1.20;;
6374;SDS011;35400;45.472;-122.822;2022-09-17T16:27:09;2.40;;;1.70;;
6374;SDS011;35400;45.472;-122.822;2022-09-17T16:29:43;1.40;;;1.30;;
6374;SDS011;35400;45.472;-122.822;2022-09-17T16:32:11;4.00;;;1.20;;
6374;SDS011;35400;45.472;-122.822;2022-09-17T16:34:37;1.83;;;1.63;;
6374;SDS011;35400;45.472;-122.822;2022-09-17T16:37:04;2.57;;;1.60;;
6374;SDS011;35400;45.472;-122.822;2022-09-17T16:39:31;4.93;;;1.50;;
6374;SDS011;35400;45.472;-122.822;2022-09-17T16:41:58;3.90;;;1.50;;
6374;SDS011;35400;45.472;-122.822;2022-09-17T16:44:24;1.77;;;1.10;;
6374;SDS011;35400;45.472;-122.822;2022-09-17T16:46:51;1.73;;;1.20;;
6374;SDS011;35400;45.472;-122.822;2022-09-17T16:49:18;1.17;;;1.10;;
6374;SDS011;35400;45.472;-122.822;2022-09-17T16:51:45;2.70;;;1.27;;
6374;SDS011;35400;45.472;-122.822;2022-09-17T16:54:11;1.40;;;1.10;;
6374;SDS011;35400;45.472;-122.822;2022-09-17T16:56:38;3.40;;;1.37;;
6374;SDS011;35400;45.472;-122.822;2022-09-17T16:59:05;3.20;;;1.17;;
6374;SDS011;35400;45.472;-122.822;2022-09-17T17:01:32;2.87;;;1.40;;
6374;SDS011;35400;45.472;-122.822;2022-09-17T17:03:59;3.67;;;1.50;;
6374;SDS011;35400;45.472;-122.822;2022-09-17T17:06:26;5.00;;;1.10;;
6374;SDS011;35400;45.472;-122.822;2022-09-17T17:08:52;1.67;;;0.90;;
6374;SDS011;35400;45.472;-122.822;2022-09-17T17:11:19;2.23;;;1.47;;
6374;SDS011;35400;45.472;-122.822;2022-09-17T17:13:46;2.00;;;1.20;;
6374;SDS011;35400;45.472;-122.822;2022-09-17T17:16:13;2.43;;;0.93;;
6374;SDS011;35400;45.472;-122.822;2022-09-17T17:18:41;2.77;;;1.33;;
6374;SDS011;35400;45.472;-122.822;2022-09-17T17:21:09;1.87;;;1.13;;
6374;SDS011;35400;45.472;-122.822;2022-09-17T17:23:37;2.33;;;1.40;;
6374;SDS011;35400;45.472;-122.822;2022-09-17T17:26:04;1.70;;;1.30;;
6374;SDS011;35400;45.472;-122.822;2022-09-17T17:28:32;4.50;;;1.10;;
6374;SDS011;35400;45.472;-122.822;2022-09-17T17:31:00;1.13;;;1.10;;
6374;SDS011;35400;45.472;-122.822;2022-09-17T17:33:27;1.50;;;1.13;;
6374;SDS011;35400;45.472;-122.822;2022-09-17T17:35:54;2.53;;;0.97;;
6374;SDS011;35400;45.472;-122.822;2022-09-17T17:38:25;2.40;;;1.10;;
6374;SDS011;35400;45.472;-122.822;2022-09-17T17:41:09;1.90;;;1.07;;
6374;SDS011;35400;45.472;-122.822;2022-09-17T17:43:37;2.17;;;1.00;;
6374;SDS011;35400;45.472;-122.822;2022-09-17T17:46:05;4.13;;;1.43;;
6374;SDS011;35400;45.472;-122.822;2022-09-17T17:48:34;3.13;;;1.33;;
6374;SDS011;35400;45.472;-122.822;2022-09-17T17:51:05;1.80;;;1.23;;
6374;SDS011;35400;45.472;-122.822;2022-09-17T17:53:34;1.20;;;1.10;;
6374;SDS011;35400;45.472;-122.822;2022-09-17T17:56:02;1.43;;;1.07;;
6374;SDS011;35400;45.472;-122.822;2022-09-17T17:58:31;1.60;;;1.17;;